sensor_id;sensor_type;location;lat;lon;timestamp;P1;durP1;ratioP1;P2;durP2;ratioP2
64712;SDS011;51140;45.340;5.980;2023-09-18T00:00:21;28.80;;;6.30;;
64712;SDS011;51140;45.340;5.980;2023-09-18T00:02:47;31.40;;;6.00;;
64712;SDS011;51140;45.340;5.980;2023-09-18T00:05:13;29.02;;;5.90;;
64712;SDS011;51140;45.340;5.980;2023-09-18T00:07:40;25.73;;;5.47;;
64712;SDS011;51140;45.340;5.980;2023-09-18T00:10:09;30.33;;;6.25;;
64712;SDS011;51140;45.340;5.980;2023-09-18T00:12:38;28.65;;;5.57;;
64712;SDS011;51140;45.340;5.980;2023-09-18T00:15:04;30.35;;;5.82;;
64712;SDS011;51140;45.340;5.980;2023-09-18T00:17:31;25.67;;;6.00;;
64712;SDS011;51140;45.340;5.980;2023-09-18T00:19:56;37.10;;;5.82;;
64712;SDS011;51140;45.340;5.980;2023-09-18T00:22:21;32.97;;;6.47;;
64712;SDS011;51140;45.340;5.980;2023-09-18T00:24:49;41.13;;;6.30;;
64712;SDS011;51140;45.340;5.980;2023-09-18T00:27:14;39.65;;;6.50;;
64712;SDS011;51140;45.340;5.980;2023-09-18T00:29:41;39.33;;;6.13;;
64712;SDS011;51140;45.340;5.980;2023-09-18T00:32:06;40.05;;;6.70;;
64712;SDS011;51140;45.340;5.980;2023-09-18T00:34:32;32.03;;;6.25;;
64712;SDS011;51140;45.340;5.980;2023-09-18T00:36:58;39.92;;;6.05;;
64712;SDS011;51140;45.340;5.980;2023-09-18T00:39:24;34.55;;;5.57;;
64712;SDS011;51140;45.340;5.980;2023-09-18T00:41:50;45.10;;;6.43;;
64712;SDS011;51140;45.340;5.980;2023-09-18T00:44:19;34.25;;;5.35;;
64712;SDS011;51140;45.340;5.980;2023-09-18T00:46:45;32.25;;;5.68;;
64712;SDS011;51140;45.340;5.980;2023-09-18T00:49:11;31.20;;;5.18;;
64712;SDS011;51140;45.340;5.980;2023-09-18T00:51:37;31.98;;;6.28;;
64712;SDS011;51140;45.340;5.980;2023-09-18T00:54:03;36.63;;;5.72;;
64712;SDS011;51140;45.340;5.980;2023-09-18T00:56:28;31.80;;;6.30;;
64712;SDS011;51140;45.340;5.980;2023-09-18T00:58:54;30.73;;;6.25;;
64712;SDS011;51140;45.340;5.980;2023-09-18T01:01:20;26.15;;;5.68;;
64712;SDS011;51140;45.340;5.980;2023-09-18T01:03:51;32.78;;;6.43;;
64712;SDS011;51140;45.340;5.980;2023-09-18T01:06:18;25.83;;;5.22;;
64712;SDS011;51140;45.340;5.980;2023-09-18T01:08:46;30.45;;;6.13;;
64712;SDS011;51140;45.340;5.980;2023-09-18T01:11:31;32.70;;;5.18;;
64712;SDS011;51140;45.340;5.980;2023-09-18T01:16:38;25.35;;;5.07;;
64712;SDS011;51140;45.340;5.980;2023-09-18T01:21:34;29.40;;;6.07;;
64712;SDS011;51140;45.340;5.980;2023-09-18T01:23:59;31.58;;;5.63;;
64712;SDS011;51140;45.340;5.980;2023-09-18T01:26:25;24.13;;;5.47;;
64712;SDS011;51140;45.340;5.980;2023-09-18T01:28:50;30.92;;;6.13;;
64712;SDS011;51140;45.340;5.980;2023-09-18T01:31:16;32.25;;;5.72;;
64712;SDS011;51140;45.340;5.980;2023-09-18T01:33:42;29.13;;;6.68;;
64712;SDS011;51140;45.340;5.980;2023-09-18T01:36:12;30.73;;;5.32;;
64712;SDS011;51140;45.340;5.980;2023-09-18T01:38:39;22.48;;;5.40;;
64712;SDS011;51140;45.340;5.980;2023-09-18T01:41:05;40.22;;;6.38;;
64712;SDS011;51140;45.340;5.980;2023-09-18T01:43:31;30.50;;;6.22;;
64712;SDS011;51140;45.340;5.980;2023-09-18T01:45:57;33.28;;;6.80;;
64712;SDS011;51140;45.340;5.980;2023-09-18T01:48:22;32.10;;;5.88;;
64712;SDS011;51140;45.340;5.980;2023-09-18T01:50:48;33.97;;;6.60;;
64712;SDS011;51140;45.340;5.980;2023-09-18T01:53:13;28.02;;;6.72;;
64712;SDS011;51140;45.340;5.980;2023-09-18T01:55:38;34.97;;;6.47;;
64712;SDS011;51140;45.340;5.980;2023-09-18T01:58:04;29.08;;;7.30;;
64712;SDS011;51140;45.340;5.980;2023-09-18T02:00:29;32.95;;;6.00;;
64712;SDS011;51140;45.340;5.980;2023-09-18T02:02:55;34.92;;;6.68;;
64712;SDS011;51140;45.340;5.980;2023-09-18T02:05:21;33.92;;;6.18;;
64712;SDS011;51140;45.340;5.980;2023-09-18T02:07:47;29.15;;;6.47;;
64712;SDS011;51140;45.340;5.980;2023-09-18T02:10:12;32.42;;;7.93;;
64712;SDS011;51140;45.340;5.980;2023-09-18T02:12:40;34.30;;;6.45;;
64712;SDS011;51140;45.340;5.980;2023-09-18T02:15:06;28.45;;;6.45;;
64712;SDS011;51140;45.340;5.980;2023-09-18T02:17:32;34.03;;;6.53;;
64712;SDS011;51140;45.340;5.980;2023-09-18T02:19:57;34.63;;;6.65;;
64712;SDS011;51140;45.340;5.980;2023-09-18T02:22:24;31.63;;;7.03;;
64712;SDS011;51140;45.340;5.980;2023-09-18T02:24:50;27.10;;;6.70;;
64712;SDS011;51140;45.340;5.980;2023-09-18T02:27:15;35.40;;;6.78;;
64712;SDS011;51140;45.340;5.980;2023-09-18T02:29:43;32.65;;;6.32;;
64712;SDS011;51140;45.340;5.980;2023-09-18T02:32:09;26.63;;;7.18;;
64712;SDS011;51140;45.340;5.980;2023-09-18T02:34:35;37.22;;;7.07;;
64712;SDS011;51140;45.340;5.980;2023-09-18T02:37:00;44.50;;;8.32;;
64712;SDS011;51140;45.340;5.980;2023-09-18T02:39:25;29.08;;;7.05;;
64712;SDS011;51140;45.340;5.980;2023-09-18T02:41:51;37.47;;;6.75;;
64712;SDS011;51140;45.340;5.980;2023-09-18T02:44:16;30.38;;;6.55;;
64712;SDS011;51140;45.340;5.980;2023-09-18T02:46:42;31.25;;;7.18;;
64712;SDS011;51140;45.340;5.980;2023-09-18T02:49:08;39.63;;;7.30;;
64712;SDS011;51140;45.340;5.980;2023-09-18T02:51:33;30.77;;;7.45;;
64712;SDS011;51140;45.340;5.980;2023-09-18T02:53:59;33.42;;;6.95;;
64712;SDS011;51140;45.340;5.980;2023-09-18T02:56:24;29.33;;;7.00;;
64712;SDS011;51140;45.340;5.980;2023-09-18T02:58:49;29.40;;;7.35;;
64712;SDS011;51140;45.340;5.980;2023-09-18T03:01:15;29.90;;;6.75;;
64712;SDS011;51140;45.340;5.980;2023-09-18T03:03:40;28.73;;;7.05;;
64712;SDS011;51140;45.340;5.980;2023-09-18T03:06:06;41.50;;;6.88;;
64712;SDS011;51140;45.340;5.980;2023-09-18T03:08:32;38.83;;;7.25;;
64712;SDS011;51140;45.340;5.980;2023-09-18T03:10:58;31.00;;;6.45;;
64712;SDS011;51140;45.340;5.980;2023-09-18T03:13:23;41.05;;;7.60;;
64712;SDS011;51140;45.340;5.980;2023-09-18T03:15:49;30.85;;;7.50;;
64712;SDS011;51140;45.340;5.980;2023-09-18T03:18:14;30.15;;;7.47;;
64712;SDS011;51140;45.340;5.980;2023-09-18T03:20:40;40.10;;;7.30;;
64712;SDS011;51140;45.340;5.980;2023-09-18T03:23:05;31.98;;;7.82;;
64712;SDS011;51140;45.340;5.980;2023-09-18T03:25:31;32.47;;;7.80;;
64712;SDS011;51140;45.340;5.980;2023-09-18T03:27:56;33.20;;;7.90;;
64712;SDS011;51140;45.340;5.980;2023-09-18T03:30:23;31.33;;;7.38;;
64712;SDS011;51140;45.340;5.980;2023-09-18T03:32:49;35.30;;;7.30;;
64712;SDS011;51140;45.340;5.980;2023-09-18T03:35:15;41.20;;;7.90;;
64712;SDS011;51140;45.340;5.980;2023-09-18T03:37:50;26.20;;;6.60;;
64712;SDS011;51140;45.340;5.980;2023-09-18T03:40:19;31.45;;;7.18;;
64712;SDS011;51140;45.340;5.980;2023-09-18T03:42:45;31.58;;;7.07;;
64712;SDS011;51140;45.340;5.980;2023-09-18T03:45:11;40.38;;;8.38;;
64712;SDS011;51140;45.340;5.980;2023-09-18T03:47:37;31.17;;;8.05;;
64712;SDS011;51140;45.340;5.980;2023-09-18T03:50:07;32.63;;;7.95;;
64712;SDS011;51140;45.340;5.980;2023-09-18T03:52:33;36.97;;;7.53;;
64712;SDS011;51140;45.340;5.980;2023-09-18T03:54:58;34.10;;;7.70;;
64712;SDS011;51140;45.340;5.980;2023-09-18T03:57:24;28.42;;;6.88;;
64712;SDS011;51140;45.340;5.980;2023-09-18T03:59:49;28.85;;;7.05;;
64712;SDS011;51140;45.340;5.980;2023-09-18T04:02:15;26.77;;;6.80;;
64712;SDS011;51140;45.340;5.980;2023-09-18T04:04:40;24.05;;;6.93;;
64712;SDS011;51140;45.340;5.980;2023-09-18T04:07:06;47.50;;;7.35;;
64712;SDS011;51140;45.340;5.980;2023-09-18T04:09:32;44.78;;;8.93;;
64712;SDS011;51140;45.340;5.980;2023-09-18T04:11:59;34.55;;;7.70;;
64712;SDS011;51140;45.340;5.980;2023-09-18T04:14:25;38.45;;;7.82;;
64712;SDS011;51140;45.340;5.980;2023-09-18T04:16:50;34.28;;;7.18;;
64712;SDS011;51140;45.340;5.980;2023-09-18T04:19:16;28.88;;;7.10;;
64712;SDS011;51140;45.340;5.980;2023-09-18T04:21:42;36.20;;;7.00;;
64712;SDS011;51140;45.340;5.980;2023-09-18T04:24:07;34.92;;;8.80;;
64712;SDS011;51140;45.340;5.980;2023-09-18T04:26:33;38.78;;;7.68;;
64712;SDS011;51140;45.340;5.980;2023-09-18T04:28:59;32.58;;;7.78;;
64712;SDS011;51140;45.340;5.980;2023-09-18T04:31:27;32.28;;;7.50;;
64712;SDS011;51140;45.340;5.980;2023-09-18T04:33:53;34.50;;;7.85;;
64712;SDS011;51140;45.340;5.980;2023-09-18T04:36:19;28.70;;;6.80;;
64712;SDS011;51140;45.340;5.980;2023-09-18T04:38:45;23.63;;;7.47;;
64712;SDS011;51140;45.340;5.980;2023-09-18T04:41:10;28.23;;;7.07;;
64712;SDS011;51140;45.340;5.980;2023-09-18T04:43:36;35.80;;;7.22;;
64712;SDS011;51140;45.340;5.980;2023-09-18T04:46:06;32.58;;;7.45;;
64712;SDS011;51140;45.340;5.980;2023-09-18T04:48:31;35.45;;;7.70;;
64712;SDS011;51140;45.340;5.980;2023-09-18T04:50:58;26.83;;;6.80;;
64712;SDS011;51140;45.340;5.980;2023-09-18T04:53:24;31.45;;;6.78;;
64712;SDS011;51140;45.340;5.980;2023-09-18T04:55:50;35.55;;;7.75;;
64712;SDS011;51140;45.340;5.980;2023-09-18T04:58:19;35.78;;;7.45;;
64712;SDS011;51140;45.340;5.980;2023-09-18T05:00:45;30.55;;;6.90;;
64712;SDS011;51140;45.340;5.980;2023-09-18T05:03:11;30.67;;;7.20;;
64712;SDS011;51140;45.340;5.980;2023-09-18T05:05:37;32.13;;;7.75;;
64712;SDS011;51140;45.340;5.980;2023-09-18T05:08:04;29.23;;;7.45;;
64712;SDS011;51140;45.340;5.980;2023-09-18T05:10:32;26.05;;;7.65;;
64712;SDS011;51140;45.340;5.980;2023-09-18T05:12:58;27.85;;;6.50;;
64712;SDS011;51140;45.340;5.980;2023-09-18T05:15:24;24.15;;;6.93;;
64712;SDS011;51140;45.340;5.980;2023-09-18T05:17:51;31.55;;;7.38;;
64712;SDS011;51140;45.340;5.980;2023-09-18T05:20:20;31.73;;;7.22;;
64712;SDS011;51140;45.340;5.980;2023-09-18T05:22:49;33.42;;;6.93;;
64712;SDS011;51140;45.340;5.980;2023-09-18T05:25:18;30.25;;;7.68;;
64712;SDS011;51140;45.340;5.980;2023-09-18T05:27:44;31.98;;;6.80;;
64712;SDS011;51140;45.340;5.980;2023-09-18T05:30:10;35.00;;;7.70;;
64712;SDS011;51140;45.340;5.980;2023-09-18T05:32:38;34.03;;;7.45;;
64712;SDS011;51140;45.340;5.980;2023-09-18T05:35:03;30.90;;;7.70;;
64712;SDS011;51140;45.340;5.980;2023-09-18T05:37:31;34.28;;;6.88;;
64712;SDS011;51140;45.340;5.980;2023-09-18T05:39:57;33.42;;;7.30;;
64712;SDS011;51140;45.340;5.980;2023-09-18T05:42:22;28.00;;;7.60;;
64712;SDS011;51140;45.340;5.980;2023-09-18T05:44:48;29.75;;;7.15;;
64712;SDS011;51140;45.340;5.980;2023-09-18T05:47:13;23.50;;;6.72;;
64712;SDS011;51140;45.340;5.980;2023-09-18T05:49:38;33.88;;;7.47;;
64712;SDS011;51140;45.340;5.980;2023-09-18T05:52:04;28.20;;;7.07;;
64712;SDS011;51140;45.340;5.980;2023-09-18T05:54:29;26.45;;;7.10;;
64712;SDS011;51140;45.340;5.980;2023-09-18T05:56:55;27.50;;;5.85;;
64712;SDS011;51140;45.340;5.980;2023-09-18T05:59:20;27.73;;;6.32;;
64712;SDS011;51140;45.340;5.980;2023-09-18T06:01:45;25.88;;;6.35;;
64712;SDS011;51140;45.340;5.980;2023-09-18T06:04:11;18.58;;;5.60;;
64712;SDS011;51140;45.340;5.980;2023-09-18T06:06:37;24.38;;;5.93;;
64712;SDS011;51140;45.340;5.980;2023-09-18T06:09:03;24.08;;;5.80;;
64712;SDS011;51140;45.340;5.980;2023-09-18T06:11:28;22.73;;;6.20;;
64712;SDS011;51140;45.340;5.980;2023-09-18T06:13:54;18.73;;;5.85;;
64712;SDS011;51140;45.340;5.980;2023-09-18T06:16:19;21.65;;;5.30;;
64712;SDS011;51140;45.340;5.980;2023-09-18T06:18:44;21.92;;;5.35;;
64712;SDS011;51140;45.340;5.980;2023-09-18T06:21:10;23.35;;;5.28;;
64712;SDS011;51140;45.340;5.980;2023-09-18T06:23:35;15.20;;;4.90;;
64712;SDS011;51140;45.340;5.980;2023-09-18T06:26:01;17.92;;;4.93;;
64712;SDS011;51140;45.340;5.980;2023-09-18T06:28:26;21.67;;;4.63;;
64712;SDS011;51140;45.340;5.980;2023-09-18T06:30:52;17.60;;;4.95;;
64712;SDS011;51140;45.340;5.980;2023-09-18T06:33:19;18.40;;;4.85;;
64712;SDS011;51140;45.340;5.980;2023-09-18T06:35:44;25.75;;;5.22;;
64712;SDS011;51140;45.340;5.980;2023-09-18T06:38:09;15.05;;;5.10;;
64712;SDS011;51140;45.340;5.980;2023-09-18T06:40:37;17.08;;;4.82;;
64712;SDS011;51140;45.340;5.980;2023-09-18T06:43:04;19.73;;;5.10;;
64712;SDS011;51140;45.340;5.980;2023-09-18T06:45:29;28.08;;;5.53;;
64712;SDS011;51140;45.340;5.980;2023-09-18T06:47:55;15.75;;;5.20;;
64712;SDS011;51140;45.340;5.980;2023-09-18T06:50:20;15.40;;;4.30;;
64712;SDS011;51140;45.340;5.980;2023-09-18T06:52:46;20.48;;;4.53;;
64712;SDS011;51140;45.340;5.980;2023-09-18T06:55:11;17.17;;;4.43;;
64712;SDS011;51140;45.340;5.980;2023-09-18T06:57:37;14.10;;;4.10;;
64712;SDS011;51140;45.340;5.980;2023-09-18T07:00:02;16.20;;;3.95;;
64712;SDS011;51140;45.340;5.980;2023-09-18T07:02:29;16.95;;;3.83;;
64712;SDS011;51140;45.340;5.980;2023-09-18T07:04:55;25.17;;;4.60;;
64712;SDS011;51140;45.340;5.980;2023-09-18T07:07:21;12.35;;;3.60;;
64712;SDS011;51140;45.340;5.980;2023-09-18T07:09:50;16.55;;;3.60;;
64712;SDS011;51140;45.340;5.980;2023-09-18T07:12:16;12.13;;;3.13;;
64712;SDS011;51140;45.340;5.980;2023-09-18T07:14:44;13.10;;;3.28;;
64712;SDS011;51140;45.340;5.980;2023-09-18T07:17:10;17.80;;;3.95;;
64712;SDS011;51140;45.340;5.980;2023-09-18T07:19:36;20.08;;;4.72;;
64712;SDS011;51140;45.340;5.980;2023-09-18T07:22:01;20.40;;;5.03;;
64712;SDS011;51140;45.340;5.980;2023-09-18T07:24:27;18.30;;;5.18;;
64712;SDS011;51140;45.340;5.980;2023-09-18T07:26:52;18.35;;;4.85;;
64712;SDS011;51140;45.340;5.980;2023-09-18T07:29:19;15.13;;;4.28;;
64712;SDS011;51140;45.340;5.980;2023-09-18T07:31:45;18.95;;;4.55;;
64712;SDS011;51140;45.340;5.980;2023-09-18T07:34:12;15.73;;;3.38;;
64712;SDS011;51140;45.340;5.980;2023-09-18T07:36:38;15.32;;;3.58;;
64712;SDS011;51140;45.340;5.980;2023-09-18T07:39:04;8.45;;;2.85;;
64712;SDS011;51140;45.340;5.980;2023-09-18T07:41:30;9.80;;;2.70;;
64712;SDS011;51140;45.340;5.980;2023-09-18T07:43:56;10.55;;;2.70;;
64712;SDS011;51140;45.340;5.980;2023-09-18T07:46:23;12.80;;;2.78;;
64712;SDS011;51140;45.340;5.980;2023-09-18T07:48:49;14.55;;;2.25;;
64712;SDS011;51140;45.340;5.980;2023-09-18T07:51:14;11.95;;;2.80;;
64712;SDS011;51140;45.340;5.980;2023-09-18T07:53:41;7.68;;;2.10;;
64712;SDS011;51140;45.340;5.980;2023-09-18T07:56:07;9.35;;;2.25;;
64712;SDS011;51140;45.340;5.980;2023-09-18T07:58:32;7.18;;;1.50;;
64712;SDS011;51140;45.340;5.980;2023-09-18T08:00:58;7.10;;;1.60;;
64712;SDS011;51140;45.340;5.980;2023-09-18T08:03:24;6.50;;;1.40;;
64712;SDS011;51140;45.340;5.980;2023-09-18T08:05:54;6.53;;;1.40;;
64712;SDS011;51140;45.340;5.980;2023-09-18T08:08:20;7.97;;;1.60;;
64712;SDS011;51140;45.340;5.980;2023-09-18T08:10:49;3.40;;;1.20;;
64712;SDS011;51140;45.340;5.980;2023-09-18T08:13:15;17.35;;;1.77;;
64712;SDS011;51140;45.340;5.980;2023-09-18T08:15:41;12.27;;;1.70;;
64712;SDS011;51140;45.340;5.980;2023-09-18T08:18:08;5.07;;;1.00;;
64712;SDS011;51140;45.340;5.980;2023-09-18T08:20:34;6.43;;;1.33;;
64712;SDS011;51140;45.340;5.980;2023-09-18T08:23:02;4.65;;;1.10;;
64712;SDS011;51140;45.340;5.980;2023-09-18T08:25:30;2.55;;;0.90;;
64712;SDS011;51140;45.340;5.980;2023-09-18T08:27:55;3.25;;;0.90;;
64712;SDS011;51140;45.340;5.980;2023-09-18T08:30:21;3.58;;;0.73;;
64712;SDS011;51140;45.340;5.980;2023-09-18T08:32:46;2.10;;;0.80;;
64712;SDS011;51140;45.340;5.980;2023-09-18T08:35:12;2.90;;;1.00;;
64712;SDS011;51140;45.340;5.980;2023-09-18T08:37:39;3.53;;;0.90;;
64712;SDS011;51140;45.340;5.980;2023-09-18T08:40:06;3.40;;;0.98;;
64712;SDS011;51140;45.340;5.980;2023-09-18T08:42:35;4.18;;;0.80;;
64712;SDS011;51140;45.340;5.980;2023-09-18T08:45:02;5.50;;;1.20;;
64712;SDS011;51140;45.340;5.980;2023-09-18T08:47:32;3.72;;;1.20;;
64712;SDS011;51140;45.340;5.980;2023-09-18T08:49:58;6.22;;;1.13;;
64712;SDS011;51140;45.340;5.980;2023-09-18T08:52:26;7.95;;;1.42;;
64712;SDS011;51140;45.340;5.980;2023-09-18T08:54:52;6.72;;;1.23;;
64712;SDS011;51140;45.340;5.980;2023-09-18T08:57:19;5.05;;;1.13;;
64712;SDS011;51140;45.340;5.980;2023-09-18T08:59:45;7.22;;;1.20;;
64712;SDS011;51140;45.340;5.980;2023-09-18T09:02:13;4.53;;;1.17;;
64712;SDS011;51140;45.340;5.980;2023-09-18T09:04:38;5.18;;;0.90;;
64712;SDS011;51140;45.340;5.980;2023-09-18T09:07:04;5.80;;;1.10;;
64712;SDS011;51140;45.340;5.980;2023-09-18T09:09:30;5.25;;;1.10;;
64712;SDS011;51140;45.340;5.980;2023-09-18T09:11:56;7.18;;;1.02;;
64712;SDS011;51140;45.340;5.980;2023-09-18T09:14:21;6.55;;;0.98;;
64712;SDS011;51140;45.340;5.980;2023-09-18T09:16:52;4.82;;;1.15;;
64712;SDS011;51140;45.340;5.980;2023-09-18T09:19:20;4.32;;;0.85;;
64712;SDS011;51140;45.340;5.980;2023-09-18T09:21:57;4.18;;;1.23;;
64712;SDS011;51140;45.340;5.980;2023-09-18T09:27:03;5.55;;;1.50;;
64712;SDS011;51140;45.340;5.980;2023-09-18T09:29:28;10.05;;;1.40;;
64712;SDS011;51140;45.340;5.980;2023-09-18T09:31:55;13.52;;;2.03;;
64712;SDS011;51140;45.340;5.980;2023-09-18T09:34:25;7.10;;;1.70;;
64712;SDS011;51140;45.340;5.980;2023-09-18T09:36:52;6.05;;;1.77;;
64712;SDS011;51140;45.340;5.980;2023-09-18T09:39:18;9.20;;;1.80;;
64712;SDS011;51140;45.340;5.980;2023-09-18T09:41:47;10.23;;;1.73;;
64712;SDS011;51140;45.340;5.980;2023-09-18T09:44:14;12.45;;;2.10;;
64712;SDS011;51140;45.340;5.980;2023-09-18T09:46:46;7.30;;;1.55;;
64712;SDS011;51140;45.340;5.980;2023-09-18T09:49:16;7.55;;;1.67;;
64712;SDS011;51140;45.340;5.980;2023-09-18T09:51:44;12.38;;;1.90;;
64712;SDS011;51140;45.340;5.980;2023-09-18T09:54:10;6.28;;;1.90;;
64712;SDS011;51140;45.340;5.980;2023-09-18T09:56:47;8.25;;;1.80;;
64712;SDS011;51140;45.340;5.980;2023-09-18T09:59:15;6.53;;;1.90;;
64712;SDS011;51140;45.340;5.980;2023-09-18T10:01:45;6.22;;;1.73;;
64712;SDS011;51140;45.340;5.980;2023-09-18T10:04:12;8.48;;;1.90;;
64712;SDS011;51140;45.340;5.980;2023-09-18T10:06:40;9.65;;;2.10;;
64712;SDS011;51140;45.340;5.980;2023-09-18T10:09:08;5.80;;;1.80;;
64712;SDS011;51140;45.340;5.980;2023-09-18T10:11:51;10.07;;;1.60;;
64712;SDS011;51140;45.340;5.980;2023-09-18T10:14:21;6.53;;;1.50;;
64712;SDS011;51140;45.340;5.980;2023-09-18T10:16:54;7.18;;;1.65;;
64712;SDS011;51140;45.340;5.980;2023-09-18T10:24:45;7.38;;;1.67;;
64712;SDS011;51140;45.340;5.980;2023-09-18T10:27:14;6.47;;;1.30;;
64712;SDS011;51140;45.340;5.980;2023-09-18T10:29:40;6.30;;;1.33;;
64712;SDS011;51140;45.340;5.980;2023-09-18T10:32:07;5.60;;;1.10;;
64712;SDS011;51140;45.340;5.980;2023-09-18T10:34:33;6.15;;;1.17;;
64712;SDS011;51140;45.340;5.980;2023-09-18T10:36:59;5.75;;;1.30;;
64712;SDS011;51140;45.340;5.980;2023-09-18T10:39:30;3.92;;;1.10;;
64712;SDS011;51140;45.340;5.980;2023-09-18T10:41:56;5.38;;;1.40;;
64712;SDS011;51140;45.340;5.980;2023-09-18T10:44:27;7.97;;;1.50;;
64712;SDS011;51140;45.340;5.980;2023-09-18T10:46:53;7.22;;;1.80;;
64712;SDS011;51140;45.340;5.980;2023-09-18T10:49:20;5.85;;;1.50;;
64712;SDS011;51140;45.340;5.980;2023-09-18T10:51:47;7.60;;;1.45;;
64712;SDS011;51140;45.340;5.980;2023-09-18T10:54:16;6.10;;;1.40;;
64712;SDS011;51140;45.340;5.980;2023-09-18T10:56:48;6.18;;;1.25;;
64712;SDS011;51140;45.340;5.980;2023-09-18T10:59:14;10.35;;;1.38;;
64712;SDS011;51140;45.340;5.980;2023-09-18T11:01:41;5.90;;;1.20;;
64712;SDS011;51140;45.340;5.980;2023-09-18T11:04:07;4.13;;;1.00;;
64712;SDS011;51140;45.340;5.980;2023-09-18T11:09:25;5.28;;;1.10;;
64712;SDS011;51140;45.340;5.980;2023-09-18T11:20:01;2.45;;;0.70;;
64712;SDS011;51140;45.340;5.980;2023-09-18T11:22:34;4.22;;;1.08;;
64712;SDS011;51140;45.340;5.980;2023-09-18T11:28:12;3.88;;;1.00;;
64712;SDS011;51140;45.340;5.980;2023-09-18T11:30:55;4.10;;;0.95;;
64712;SDS011;51140;45.340;5.980;2023-09-18T11:33:44;4.47;;;1.08;;
64712;SDS011;51140;45.340;5.980;2023-09-18T11:36:11;5.95;;;1.10;;
64712;SDS011;51140;45.340;5.980;2023-09-18T11:38:57;6.82;;;1.50;;
64712;SDS011;51140;45.340;5.980;2023-09-18T11:41:33;8.85;;;1.50;;
64712;SDS011;51140;45.340;5.980;2023-09-18T11:46:31;4.85;;;1.08;;
64712;SDS011;51140;45.340;5.980;2023-09-18T11:48:58;4.75;;;1.17;;
64712;SDS011;51140;45.340;5.980;2023-09-18T11:51:24;3.05;;;1.02;;
64712;SDS011;51140;45.340;5.980;2023-09-18T11:53:53;6.55;;;1.40;;
64712;SDS011;51140;45.340;5.980;2023-09-18T11:56:20;48.88;;;2.75;;
64712;SDS011;51140;45.340;5.980;2023-09-18T11:58:47;15.68;;;2.38;;
64712;SDS011;51140;45.340;5.980;2023-09-18T12:01:13;10.57;;;1.85;;
64712;SDS011;51140;45.340;5.980;2023-09-18T12:03:40;7.63;;;2.00;;
64712;SDS011;51140;45.340;5.980;2023-09-18T12:06:06;11.25;;;1.88;;
64712;SDS011;51140;45.340;5.980;2023-09-18T12:08:34;6.18;;;1.50;;
64712;SDS011;51140;45.340;5.980;2023-09-18T12:11:01;10.30;;;1.92;;
64712;SDS011;51140;45.340;5.980;2023-09-18T12:13:30;11.05;;;1.80;;
64712;SDS011;51140;45.340;5.980;2023-09-18T12:15:59;10.63;;;1.75;;
64712;SDS011;51140;45.340;5.980;2023-09-18T12:18:26;9.07;;;2.22;;
64712;SDS011;51140;45.340;5.980;2023-09-18T12:20:54;14.15;;;2.58;;
64712;SDS011;51140;45.340;5.980;2023-09-18T12:23:21;7.68;;;1.85;;
64712;SDS011;51140;45.340;5.980;2023-09-18T12:25:47;10.00;;;2.53;;
64712;SDS011;51140;45.340;5.980;2023-09-18T12:28:15;9.95;;;2.30;;
64712;SDS011;51140;45.340;5.980;2023-09-18T12:30:43;8.98;;;2.10;;
64712;SDS011;51140;45.340;5.980;2023-09-18T12:33:11;13.23;;;1.83;;
64712;SDS011;51140;45.340;5.980;2023-09-18T12:35:39;5.88;;;1.70;;
64712;SDS011;51140;45.340;5.980;2023-09-18T12:38:15;7.90;;;2.08;;
64712;SDS011;51140;45.340;5.980;2023-09-18T12:40:43;5.75;;;1.60;;
64712;SDS011;51140;45.340;5.980;2023-09-18T12:43:11;6.15;;;1.48;;
64712;SDS011;51140;45.340;5.980;2023-09-18T12:45:39;6.00;;;1.60;;
64712;SDS011;51140;45.340;5.980;2023-09-18T12:48:05;5.18;;;1.40;;
64712;SDS011;51140;45.340;5.980;2023-09-18T12:50:31;5.63;;;1.70;;
64712;SDS011;51140;45.340;5.980;2023-09-18T12:53:06;6.03;;;1.70;;
64712;SDS011;51140;45.340;5.980;2023-09-18T12:55:33;5.75;;;1.77;;
64712;SDS011;51140;45.340;5.980;2023-09-18T12:57:58;6.40;;;1.92;;
64712;SDS011;51140;45.340;5.980;2023-09-18T13:00:24;14.50;;;1.98;;
64712;SDS011;51140;45.340;5.980;2023-09-18T13:02:51;16.05;;;2.22;;
64712;SDS011;51140;45.340;5.980;2023-09-18T13:05:20;8.93;;;2.28;;
64712;SDS011;51140;45.340;5.980;2023-09-18T13:07:49;9.57;;;1.83;;
64712;SDS011;51140;45.340;5.980;2023-09-18T13:10:15;11.18;;;1.98;;
64712;SDS011;51140;45.340;5.980;2023-09-18T13:12:50;7.47;;;2.15;;
64712;SDS011;51140;45.340;5.980;2023-09-18T13:15:28;10.20;;;2.05;;
64712;SDS011;51140;45.340;5.980;2023-09-18T13:17:55;11.82;;;2.88;;
64712;SDS011;51140;45.340;5.980;2023-09-18T13:20:25;6.13;;;1.80;;
64712;SDS011;51140;45.340;5.980;2023-09-18T13:22:54;9.15;;;2.22;;
64712;SDS011;51140;45.340;5.980;2023-09-18T13:25:21;7.07;;;2.13;;
64712;SDS011;51140;45.340;5.980;2023-09-18T13:27:52;9.27;;;2.22;;
64712;SDS011;51140;45.340;5.980;2023-09-18T13:30:19;8.88;;;2.15;;
64712;SDS011;51140;45.340;5.980;2023-09-18T13:32:47;9.40;;;2.28;;
64712;SDS011;51140;45.340;5.980;2023-09-18T13:35:14;7.55;;;2.60;;
64712;SDS011;51140;45.340;5.980;2023-09-18T13:37:40;13.20;;;2.25;;
64712;SDS011;51140;45.340;5.980;2023-09-18T13:40:06;12.60;;;2.90;;
64712;SDS011;51140;45.340;5.980;2023-09-18T13:42:33;11.27;;;2.20;;
64712;SDS011;51140;45.340;5.980;2023-09-18T13:44:59;7.10;;;2.13;;
64712;SDS011;51140;45.340;5.980;2023-09-18T13:47:26;9.18;;;2.53;;
64712;SDS011;51140;45.340;5.980;2023-09-18T13:49:54;11.32;;;2.63;;
64712;SDS011;51140;45.340;5.980;2023-09-18T13:52:24;9.75;;;2.80;;
64712;SDS011;51140;45.340;5.980;2023-09-18T13:54:53;12.25;;;2.42;;
64712;SDS011;51140;45.340;5.980;2023-09-18T13:57:19;10.40;;;2.90;;
64712;SDS011;51140;45.340;5.980;2023-09-18T13:59:45;10.45;;;2.97;;
64712;SDS011;51140;45.340;5.980;2023-09-18T14:02:12;9.48;;;3.17;;
64712;SDS011;51140;45.340;5.980;2023-09-18T14:04:38;9.60;;;2.90;;
64712;SDS011;51140;45.340;5.980;2023-09-18T14:07:04;12.77;;;2.92;;
64712;SDS011;51140;45.340;5.980;2023-09-18T14:09:30;7.40;;;2.55;;
64712;SDS011;51140;45.340;5.980;2023-09-18T14:11:56;8.55;;;3.00;;
64712;SDS011;51140;45.340;5.980;2023-09-18T14:14:21;6.40;;;2.15;;
64712;SDS011;51140;45.340;5.980;2023-09-18T14:16:47;7.38;;;2.50;;
64712;SDS011;51140;45.340;5.980;2023-09-18T14:19:15;8.70;;;2.38;;
64712;SDS011;51140;45.340;5.980;2023-09-18T14:21:41;7.85;;;2.65;;
64712;SDS011;51140;45.340;5.980;2023-09-18T14:24:06;8.07;;;2.30;;
64712;SDS011;51140;45.340;5.980;2023-09-18T14:26:32;7.60;;;2.63;;
64712;SDS011;51140;45.340;5.980;2023-09-18T14:28:59;10.27;;;2.38;;
64712;SDS011;51140;45.340;5.980;2023-09-18T14:31:26;11.82;;;2.55;;
64712;SDS011;51140;45.340;5.980;2023-09-18T14:33:52;10.50;;;2.55;;
64712;SDS011;51140;45.340;5.980;2023-09-18T14:36:17;9.63;;;3.22;;
64712;SDS011;51140;45.340;5.980;2023-09-18T14:38:43;10.95;;;3.33;;
64712;SDS011;51140;45.340;5.980;2023-09-18T14:41:08;10.30;;;3.53;;
64712;SDS011;51140;45.340;5.980;2023-09-18T14:43:34;9.85;;;2.75;;
64712;SDS011;51140;45.340;5.980;2023-09-18T14:46:00;10.50;;;2.80;;
64712;SDS011;51140;45.340;5.980;2023-09-18T14:48:25;9.88;;;2.80;;
64712;SDS011;51140;45.340;5.980;2023-09-18T14:50:54;6.97;;;2.00;;
64712;SDS011;51140;45.340;5.980;2023-09-18T14:53:20;6.60;;;2.45;;
64712;SDS011;51140;45.340;5.980;2023-09-18T14:55:46;9.88;;;2.70;;
64712;SDS011;51140;45.340;5.980;2023-09-18T14:58:11;8.30;;;2.65;;
64712;SDS011;51140;45.340;5.980;2023-09-18T15:00:37;9.63;;;2.33;;
64712;SDS011;51140;45.340;5.980;2023-09-18T15:03:02;10.73;;;2.65;;
64712;SDS011;51140;45.340;5.980;2023-09-18T15:05:28;7.43;;;2.72;;